sensor_id;sensor_type;location;lat;lon;timestamp;P1;durP1;ratioP1;P2;durP2;ratioP2
68989;SDS011;56046;47.270;11.368;2023-06-04T00:02:02;10.90;;;6.27;;
68989;SDS011;56046;47.270;11.368;2023-06-04T00:04:27;10.20;;;6.57;;
68989;SDS011;56046;47.270;11.368;2023-06-04T00:06:53;9.67;;;6.50;;
68989;SDS011;56046;47.270;11.368;2023-06-04T00:09:19;13.50;;;6.30;;
68989;SDS011;56046;47.270;11.368;2023-06-04T00:11:44;12.10;;;6.87;;
68989;SDS011;56046;47.270;11.368;2023-06-04T00:14:10;11.23;;;7.15;;
68989;SDS011;56046;47.270;11.368;2023-06-04T00:16:36;11.60;;;6.83;;
68989;SDS011;56046;47.270;11.368;2023-06-04T00:19:01;12.63;;;6.50;;
68989;SDS011;56046;47.270;11.368;2023-06-04T00:21:27;12.30;;;6.63;;
68989;SDS011;56046;47.270;11.368;2023-06-04T00:23:53;11.77;;;6.73;;
68989;SDS011;56046;47.270;11.368;2023-06-04T00:26:18;11.60;;;7.40;;
68989;SDS011;56046;47.270;11.368;2023-06-04T00:28:43;12.27;;;7.43;;
68989;SDS011;56046;47.270;11.368;2023-06-04T00:31:08;11.03;;;7.53;;
68989;SDS011;56046;47.270;11.368;2023-06-04T00:33:35;12.35;;;7.72;;
68989;SDS011;56046;47.270;11.368;2023-06-04T00:36:00;11.57;;;7.20;;
68989;SDS011;56046;47.270;11.368;2023-06-04T00:38:25;12.17;;;7.10;;
68989;SDS011;56046;47.270;11.368;2023-06-04T00:40:52;10.85;;;7.25;;
68989;SDS011;56046;47.270;11.368;2023-06-04T00:43:17;11.13;;;6.67;;
68989;SDS011;56046;47.270;11.368;2023-06-04T00:45:43;14.32;;;6.07;;
68989;SDS011;56046;47.270;11.368;2023-06-04T00:48:09;10.67;;;6.07;;
68989;SDS011;56046;47.270;11.368;2023-06-04T00:50:34;10.43;;;6.30;;
68989;SDS011;56046;47.270;11.368;2023-06-04T00:53:00;9.70;;;6.63;;
68989;SDS011;56046;47.270;11.368;2023-06-04T00:55:26;11.90;;;6.87;;
68989;SDS011;56046;47.270;11.368;2023-06-04T00:57:51;12.03;;;6.90;;
68989;SDS011;56046;47.270;11.368;2023-06-04T01:00:16;13.47;;;7.10;;
68989;SDS011;56046;47.270;11.368;2023-06-04T01:02:42;11.50;;;7.03;;
68989;SDS011;56046;47.270;11.368;2023-06-04T01:07:54;11.45;;;7.40;;
68989;SDS011;56046;47.270;11.368;2023-06-04T01:10:20;11.10;;;6.75;;
68989;SDS011;56046;47.270;11.368;2023-06-04T01:12:47;12.13;;;6.80;;
68989;SDS011;56046;47.270;11.368;2023-06-04T01:15:12;11.60;;;6.93;;
68989;SDS011;56046;47.270;11.368;2023-06-04T01:17:41;10.00;;;6.63;;
68989;SDS011;56046;47.270;11.368;2023-06-04T01:20:25;10.40;;;6.20;;
68989;SDS011;56046;47.270;11.368;2023-06-04T01:25:25;9.43;;;6.00;;
68989;SDS011;56046;47.270;11.368;2023-06-04T01:27:52;13.13;;;6.43;;
68989;SDS011;56046;47.270;11.368;2023-06-04T01:30:30;8.77;;;5.78;;
68989;SDS011;56046;47.270;11.368;2023-06-04T01:32:55;9.32;;;5.95;;
68989;SDS011;56046;47.270;11.368;2023-06-04T01:35:21;10.10;;;5.87;;
68989;SDS011;56046;47.270;11.368;2023-06-04T01:37:46;9.55;;;5.95;;
68989;SDS011;56046;47.270;11.368;2023-06-04T01:40:12;9.97;;;6.03;;
68989;SDS011;56046;47.270;11.368;2023-06-04T01:42:38;9.13;;;5.95;;
68989;SDS011;56046;47.270;11.368;2023-06-04T01:45:03;9.33;;;6.40;;
68989;SDS011;56046;47.270;11.368;2023-06-04T01:47:29;10.17;;;5.77;;
68989;SDS011;56046;47.270;11.368;2023-06-04T01:49:54;12.85;;;6.10;;
68989;SDS011;56046;47.270;11.368;2023-06-04T01:52:19;12.80;;;6.27;;
68989;SDS011;56046;47.270;11.368;2023-06-04T01:54:46;8.37;;;6.00;;
68989;SDS011;56046;47.270;11.368;2023-06-04T01:57:13;9.82;;;6.22;;
68989;SDS011;56046;47.270;11.368;2023-06-04T01:59:39;10.65;;;6.53;;
68989;SDS011;56046;47.270;11.368;2023-06-04T02:02:06;8.13;;;5.67;;
68989;SDS011;56046;47.270;11.368;2023-06-04T02:04:31;8.63;;;5.30;;
68989;SDS011;56046;47.270;11.368;2023-06-04T02:06:57;8.87;;;5.60;;
68989;SDS011;56046;47.270;11.368;2023-06-04T02:09:24;9.60;;;6.00;;
68989;SDS011;56046;47.270;11.368;2023-06-04T02:11:50;8.97;;;5.93;;
68989;SDS011;56046;47.270;11.368;2023-06-04T02:14:16;9.70;;;5.90;;
68989;SDS011;56046;47.270;11.368;2023-06-04T02:16:41;10.87;;;5.97;;
68989;SDS011;56046;47.270;11.368;2023-06-04T02:19:06;10.53;;;6.03;;
68989;SDS011;56046;47.270;11.368;2023-06-04T02:21:31;11.30;;;6.00;;
68989;SDS011;56046;47.270;11.368;2023-06-04T02:23:57;10.57;;;6.43;;
68989;SDS011;56046;47.270;11.368;2023-06-04T02:26:22;10.10;;;6.63;;
68989;SDS011;56046;47.270;11.368;2023-06-04T02:28:48;10.60;;;6.97;;
68989;SDS011;56046;47.270;11.368;2023-06-04T02:31:13;9.90;;;6.47;;
68989;SDS011;56046;47.270;11.368;2023-06-04T02:33:40;10.25;;;6.50;;
68989;SDS011;56046;47.270;11.368;2023-06-04T02:36:05;9.40;;;5.93;;
68989;SDS011;56046;47.270;11.368;2023-06-04T02:38:30;10.88;;;6.40;;
68989;SDS011;56046;47.270;11.368;2023-06-04T02:40:56;7.93;;;5.07;;
68989;SDS011;56046;47.270;11.368;2023-06-04T02:43:21;8.10;;;5.37;;
68989;SDS011;56046;47.270;11.368;2023-06-04T02:45:46;8.50;;;5.27;;
68989;SDS011;56046;47.270;11.368;2023-06-04T02:48:11;9.03;;;5.70;;
68989;SDS011;56046;47.270;11.368;2023-06-04T02:50:37;7.70;;;5.00;;
68989;SDS011;56046;47.270;11.368;2023-06-04T02:53:02;9.07;;;5.27;;
68989;SDS011;56046;47.270;11.368;2023-06-04T02:55:27;10.80;;;5.80;;
68989;SDS011;56046;47.270;11.368;2023-06-04T02:57:52;8.60;;;5.67;;
68989;SDS011;56046;47.270;11.368;2023-06-04T03:00:18;9.80;;;5.50;;
68989;SDS011;56046;47.270;11.368;2023-06-04T03:02:44;8.30;;;5.10;;
68989;SDS011;56046;47.270;11.368;2023-06-04T03:05:11;8.45;;;5.32;;
68989;SDS011;56046;47.270;11.368;2023-06-04T03:07:37;8.70;;;5.57;;
68989;SDS011;56046;47.270;11.368;2023-06-04T03:10:03;8.05;;;5.13;;
68989;SDS011;56046;47.270;11.368;2023-06-04T03:12:29;8.73;;;4.70;;
68989;SDS011;56046;47.270;11.368;2023-06-04T03:14:54;8.40;;;5.10;;
68989;SDS011;56046;47.270;11.368;2023-06-04T03:17:20;7.13;;;4.80;;
68989;SDS011;56046;47.270;11.368;2023-06-04T03:19:45;7.40;;;4.60;;
68989;SDS011;56046;47.270;11.368;2023-06-04T03:22:10;9.00;;;5.00;;
68989;SDS011;56046;47.270;11.368;2023-06-04T03:24:36;8.50;;;4.47;;
68989;SDS011;56046;47.270;11.368;2023-06-04T03:27:04;8.02;;;4.82;;
68989;SDS011;56046;47.270;11.368;2023-06-04T03:29:31;8.55;;;4.70;;
68989;SDS011;56046;47.270;11.368;2023-06-04T03:31:57;8.07;;;5.10;;
68989;SDS011;56046;47.270;11.368;2023-06-04T03:34:22;7.45;;;4.78;;
68989;SDS011;56046;47.270;11.368;2023-06-04T03:36:51;8.57;;;5.13;;
68989;SDS011;56046;47.270;11.368;2023-06-04T03:39:16;7.95;;;4.72;;
68989;SDS011;56046;47.270;11.368;2023-06-04T03:41:41;9.80;;;5.20;;
68989;SDS011;56046;47.270;11.368;2023-06-04T03:44:06;8.47;;;5.30;;
68989;SDS011;56046;47.270;11.368;2023-06-04T03:46:32;8.50;;;5.23;;
68989;SDS011;56046;47.270;11.368;2023-06-04T03:48:58;9.13;;;5.03;;
68989;SDS011;56046;47.270;11.368;2023-06-04T03:51:23;8.70;;;5.33;;
68989;SDS011;56046;47.270;11.368;2023-06-04T03:53:49;8.63;;;5.40;;
68989;SDS011;56046;47.270;11.368;2023-06-04T03:56:14;10.55;;;5.75;;
68989;SDS011;56046;47.270;11.368;2023-06-04T03:58:39;8.67;;;5.40;;
68989;SDS011;56046;47.270;11.368;2023-06-04T04:01:05;8.57;;;5.00;;
68989;SDS011;56046;47.270;11.368;2023-06-04T04:03:30;11.07;;;6.30;;
68989;SDS011;56046;47.270;11.368;2023-06-04T04:05:56;9.73;;;5.75;;
68989;SDS011;56046;47.270;11.368;2023-06-04T04:08:22;9.70;;;5.73;;
68989;SDS011;56046;47.270;11.368;2023-06-04T04:10:48;8.45;;;5.63;;
68989;SDS011;56046;47.270;11.368;2023-06-04T04:13:13;11.27;;;6.00;;
68989;SDS011;56046;47.270;11.368;2023-06-04T04:15:38;9.77;;;6.27;;
68989;SDS011;56046;47.270;11.368;2023-06-04T04:18:03;9.93;;;6.20;;
68989;SDS011;56046;47.270;11.368;2023-06-04T04:20:29;8.23;;;5.33;;
68989;SDS011;56046;47.270;11.368;2023-06-04T04:22:54;10.17;;;5.87;;
68989;SDS011;56046;47.270;11.368;2023-06-04T04:25:20;8.25;;;5.50;;
68989;SDS011;56046;47.270;11.368;2023-06-04T04:27:45;12.73;;;5.47;;
68989;SDS011;56046;47.270;11.368;2023-06-04T04:30:11;10.07;;;5.80;;
68989;SDS011;56046;47.270;11.368;2023-06-04T04:32:37;8.80;;;5.40;;
68989;SDS011;56046;47.270;11.368;2023-06-04T04:35:03;9.68;;;4.88;;
68989;SDS011;56046;47.270;11.368;2023-06-04T04:37:29;8.23;;;5.40;;
68989;SDS011;56046;47.270;11.368;2023-06-04T04:39:55;8.93;;;6.10;;
68989;SDS011;56046;47.270;11.368;2023-06-04T04:42:20;11.20;;;5.63;;
68989;SDS011;56046;47.270;11.368;2023-06-04T04:44:45;7.75;;;4.75;;
68989;SDS011;56046;47.270;11.368;2023-06-04T04:47:15;8.53;;;5.00;;
68989;SDS011;56046;47.270;11.368;2023-06-04T04:49:41;7.90;;;4.72;;
68989;SDS011;56046;47.270;11.368;2023-06-04T04:52:06;8.77;;;5.10;;
68989;SDS011;56046;47.270;11.368;2023-06-04T04:54:31;8.73;;;5.47;;
68989;SDS011;56046;47.270;11.368;2023-06-04T04:56:57;8.07;;;5.77;;
68989;SDS011;56046;47.270;11.368;2023-06-04T04:59:22;8.97;;;5.47;;
68989;SDS011;56046;47.270;11.368;2023-06-04T05:01:47;8.10;;;5.50;;
68989;SDS011;56046;47.270;11.368;2023-06-04T05:04:12;8.57;;;5.17;;
68989;SDS011;56046;47.270;11.368;2023-06-04T05:06:37;10.50;;;5.30;;
68989;SDS011;56046;47.270;11.368;2023-06-04T05:09:03;8.68;;;5.53;;
68989;SDS011;56046;47.270;11.368;2023-06-04T05:11:28;8.30;;;5.70;;
68989;SDS011;56046;47.270;11.368;2023-06-04T05:13:54;10.03;;;5.47;;
68989;SDS011;56046;47.270;11.368;2023-06-04T05:16:19;8.87;;;6.03;;
68989;SDS011;56046;47.270;11.368;2023-06-04T05:18:45;7.88;;;5.65;;
68989;SDS011;56046;47.270;11.368;2023-06-04T05:21:10;9.53;;;5.80;;
68989;SDS011;56046;47.270;11.368;2023-06-04T05:23:37;8.73;;;5.78;;
68989;SDS011;56046;47.270;11.368;2023-06-04T05:26:03;8.80;;;5.32;;
68989;SDS011;56046;47.270;11.368;2023-06-04T05:28:29;9.32;;;5.47;;
68989;SDS011;56046;47.270;11.368;2023-06-04T05:30:55;10.33;;;5.50;;
68989;SDS011;56046;47.270;11.368;2023-06-04T05:33:25;7.73;;;4.90;;
68989;SDS011;56046;47.270;11.368;2023-06-04T05:35:50;7.60;;;4.82;;
68989;SDS011;56046;47.270;11.368;2023-06-04T05:38:17;8.27;;;4.85;;
68989;SDS011;56046;47.270;11.368;2023-06-04T05:40:43;7.25;;;4.40;;
68989;SDS011;56046;47.270;11.368;2023-06-04T05:43:08;7.10;;;4.83;;
68989;SDS011;56046;47.270;11.368;2023-06-04T05:45:34;8.47;;;5.20;;
68989;SDS011;56046;47.270;11.368;2023-06-04T05:47:59;9.63;;;5.30;;
68989;SDS011;56046;47.270;11.368;2023-06-04T05:50:24;7.70;;;4.80;;
68989;SDS011;56046;47.270;11.368;2023-06-04T05:52:50;7.83;;;4.90;;
68989;SDS011;56046;47.270;11.368;2023-06-04T05:55:15;8.77;;;5.77;;
68989;SDS011;56046;47.270;11.368;2023-06-04T05:57:41;8.48;;;5.32;;
68989;SDS011;56046;47.270;11.368;2023-06-04T06:00:07;8.77;;;5.00;;
68989;SDS011;56046;47.270;11.368;2023-06-04T06:02:35;8.75;;;4.60;;
68989;SDS011;56046;47.270;11.368;2023-06-04T06:05:01;6.93;;;4.50;;
68989;SDS011;56046;47.270;11.368;2023-06-04T06:07:26;7.40;;;4.80;;
68989;SDS011;56046;47.270;11.368;2023-06-04T06:09:52;6.97;;;4.47;;
68989;SDS011;56046;47.270;11.368;2023-06-04T06:12:17;7.10;;;4.87;;
68989;SDS011;56046;47.270;11.368;2023-06-04T06:14:42;8.07;;;4.60;;
68989;SDS011;56046;47.270;11.368;2023-06-04T06:17:07;11.20;;;5.10;;
68989;SDS011;56046;47.270;11.368;2023-06-04T06:19:33;7.30;;;4.60;;
68989;SDS011;56046;47.270;11.368;2023-06-04T06:21:58;7.23;;;4.60;;
68989;SDS011;56046;47.270;11.368;2023-06-04T06:24:24;6.50;;;4.40;;
68989;SDS011;56046;47.270;11.368;2023-06-04T06:26:49;6.38;;;4.50;;
68989;SDS011;56046;47.270;11.368;2023-06-04T06:29:14;6.23;;;4.70;;
68989;SDS011;56046;47.270;11.368;2023-06-04T06:31:39;7.13;;;4.50;;
68989;SDS011;56046;47.270;11.368;2023-06-04T06:34:05;7.80;;;4.35;;
68989;SDS011;56046;47.270;11.368;2023-06-04T06:36:30;6.53;;;3.83;;
68989;SDS011;56046;47.270;11.368;2023-06-04T06:38:57;6.40;;;4.97;;
68989;SDS011;56046;47.270;11.368;2023-06-04T06:41:23;7.83;;;4.23;;
68989;SDS011;56046;47.270;11.368;2023-06-04T06:43:48;7.57;;;4.57;;
68989;SDS011;56046;47.270;11.368;2023-06-04T06:46:13;6.27;;;4.40;;
68989;SDS011;56046;47.270;11.368;2023-06-04T06:48:38;6.13;;;4.73;;
68989;SDS011;56046;47.270;11.368;2023-06-04T06:51:04;7.50;;;4.30;;
68989;SDS011;56046;47.270;11.368;2023-06-04T06:53:29;5.83;;;4.00;;
68989;SDS011;56046;47.270;11.368;2023-06-04T06:55:54;6.40;;;4.23;;
68989;SDS011;56046;47.270;11.368;2023-06-04T06:58:21;6.60;;;4.63;;
68989;SDS011;56046;47.270;11.368;2023-06-04T07:00:46;6.40;;;4.50;;
68989;SDS011;56046;47.270;11.368;2023-06-04T07:03:11;9.23;;;4.97;;
68989;SDS011;56046;47.270;11.368;2023-06-04T07:05:37;7.70;;;4.30;;
68989;SDS011;56046;47.270;11.368;2023-06-04T07:08:02;6.63;;;4.03;;
68989;SDS011;56046;47.270;11.368;2023-06-04T07:10:27;6.67;;;3.90;;
68989;SDS011;56046;47.270;11.368;2023-06-04T07:12:53;6.97;;;4.10;;
68989;SDS011;56046;47.270;11.368;2023-06-04T07:15:18;5.70;;;3.80;;
68989;SDS011;56046;47.270;11.368;2023-06-04T07:17:43;6.03;;;4.35;;
68989;SDS011;56046;47.270;11.368;2023-06-04T07:20:09;6.23;;;4.13;;
68989;SDS011;56046;47.270;11.368;2023-06-04T07:22:34;8.87;;;3.87;;
68989;SDS011;56046;47.270;11.368;2023-06-04T07:25:00;6.15;;;3.78;;
68989;SDS011;56046;47.270;11.368;2023-06-04T07:27:25;5.93;;;3.50;;
68989;SDS011;56046;47.270;11.368;2023-06-04T07:29:51;5.20;;;3.72;;
68989;SDS011;56046;47.270;11.368;2023-06-04T07:32:16;4.87;;;3.50;;
68989;SDS011;56046;47.270;11.368;2023-06-04T07:34:42;5.70;;;3.47;;
68989;SDS011;56046;47.270;11.368;2023-06-04T07:37:07;7.20;;;3.60;;
68989;SDS011;56046;47.270;11.368;2023-06-04T07:39:34;6.30;;;3.33;;
68989;SDS011;56046;47.270;11.368;2023-06-04T07:41:59;6.50;;;3.80;;
68989;SDS011;56046;47.270;11.368;2023-06-04T07:44:25;5.43;;;3.73;;
68989;SDS011;56046;47.270;11.368;2023-06-04T07:46:50;5.47;;;3.70;;
68989;SDS011;56046;47.270;11.368;2023-06-04T07:49:15;5.17;;;3.47;;
68989;SDS011;56046;47.270;11.368;2023-06-04T07:51:40;5.47;;;3.47;;
68989;SDS011;56046;47.270;11.368;2023-06-04T07:54:06;5.20;;;3.38;;
68989;SDS011;56046;47.270;11.368;2023-06-04T07:56:31;6.13;;;2.87;;
68989;SDS011;56046;47.270;11.368;2023-06-04T07:58:57;5.70;;;2.97;;
68989;SDS011;56046;47.270;11.368;2023-06-04T08:01:22;4.07;;;2.83;;
68989;SDS011;56046;47.270;11.368;2023-06-04T08:03:48;6.28;;;3.63;;
68989;SDS011;56046;47.270;11.368;2023-06-04T08:06:14;4.97;;;3.57;;
68989;SDS011;56046;47.270;11.368;2023-06-04T08:08:43;6.03;;;3.73;;
68989;SDS011;56046;47.270;11.368;2023-06-04T08:11:10;5.57;;;3.70;;
68989;SDS011;56046;47.270;11.368;2023-06-04T08:13:35;4.93;;;3.30;;
68989;SDS011;56046;47.270;11.368;2023-06-04T08:16:00;5.70;;;3.60;;
68989;SDS011;56046;47.270;11.368;2023-06-04T08:18:26;4.57;;;3.20;;
68989;SDS011;56046;47.270;11.368;2023-06-04T08:20:51;4.10;;;2.80;;
68989;SDS011;56046;47.270;11.368;2023-06-04T08:23:16;4.23;;;2.93;;
68989;SDS011;56046;47.270;11.368;2023-06-04T08:25:41;5.13;;;3.13;;
68989;SDS011;56046;47.270;11.368;2023-06-04T08:28:07;3.80;;;2.47;;
68989;SDS011;56046;47.270;11.368;2023-06-04T08:30:32;4.43;;;2.97;;
68989;SDS011;56046;47.270;11.368;2023-06-04T08:33:00;4.47;;;3.00;;
68989;SDS011;56046;47.270;11.368;2023-06-04T08:35:26;4.23;;;2.73;;
68989;SDS011;56046;47.270;11.368;2023-06-04T08:37:51;4.43;;;2.83;;
68989;SDS011;56046;47.270;11.368;2023-06-04T08:40:17;5.00;;;3.00;;
68989;SDS011;56046;47.270;11.368;2023-06-04T08:42:43;4.03;;;2.63;;
68989;SDS011;56046;47.270;11.368;2023-06-04T08:45:10;5.05;;;2.92;;
68989;SDS011;56046;47.270;11.368;2023-06-04T08:47:36;5.05;;;2.72;;
68989;SDS011;56046;47.270;11.368;2023-06-04T08:50:02;5.63;;;3.07;;
68989;SDS011;56046;47.270;11.368;2023-06-04T08:52:30;5.65;;;3.45;;
68989;SDS011;56046;47.270;11.368;2023-06-04T08:54:55;5.50;;;3.40;;
68989;SDS011;56046;47.270;11.368;2023-06-04T08:57:21;4.97;;;3.20;;
68989;SDS011;56046;47.270;11.368;2023-06-04T08:59:47;4.97;;;2.80;;
68989;SDS011;56046;47.270;11.368;2023-06-04T09:02:15;4.97;;;3.20;;
68989;SDS011;56046;47.270;11.368;2023-06-04T09:04:41;5.75;;;2.90;;
68989;SDS011;56046;47.270;11.368;2023-06-04T09:07:06;7.03;;;3.30;;
68989;SDS011;56046;47.270;11.368;2023-06-04T09:09:35;4.75;;;3.28;;
68989;SDS011;56046;47.270;11.368;2023-06-04T09:12:02;4.50;;;2.75;;
68989;SDS011;56046;47.270;11.368;2023-06-04T09:14:29;3.40;;;2.50;;
68989;SDS011;56046;47.270;11.368;2023-06-04T09:16:55;4.18;;;2.70;;
68989;SDS011;56046;47.270;11.368;2023-06-04T09:19:23;4.23;;;2.80;;
68989;SDS011;56046;47.270;11.368;2023-06-04T09:21:53;3.73;;;2.40;;
68989;SDS011;56046;47.270;11.368;2023-06-04T09:24:19;6.40;;;2.97;;
68989;SDS011;56046;47.270;11.368;2023-06-04T09:26:45;4.00;;;2.67;;
68989;SDS011;56046;47.270;11.368;2023-06-04T09:29:11;3.93;;;2.97;;
68989;SDS011;56046;47.270;11.368;2023-06-04T09:31:36;5.03;;;2.97;;
68989;SDS011;56046;47.270;11.368;2023-06-04T09:34:05;4.30;;;3.10;;
68989;SDS011;56046;47.270;11.368;2023-06-04T09:36:31;5.63;;;2.92;;
68989;SDS011;56046;47.270;11.368;2023-06-04T09:38:57;5.50;;;2.85;;
68989;SDS011;56046;47.270;11.368;2023-06-04T09:41:22;4.87;;;3.33;;
68989;SDS011;56046;47.270;11.368;2023-06-04T09:43:47;4.90;;;2.87;;
68989;SDS011;56046;47.270;11.368;2023-06-04T09:46:13;4.70;;;3.30;;
68989;SDS011;56046;47.270;11.368;2023-06-04T09:48:39;4.97;;;3.10;;
68989;SDS011;56046;47.270;11.368;2023-06-04T09:51:11;4.18;;;3.10;;
68989;SDS011;56046;47.270;11.368;2023-06-04T09:53:37;5.28;;;3.08;;
68989;SDS011;56046;47.270;11.368;2023-06-04T09:56:03;5.40;;;2.63;;
68989;SDS011;56046;47.270;11.368;2023-06-04T09:58:29;4.38;;;2.97;;
68989;SDS011;56046;47.270;11.368;2023-06-04T10:00:55;4.30;;;3.00;;
68989;SDS011;56046;47.270;11.368;2023-06-04T10:03:22;4.72;;;3.05;;
68989;SDS011;56046;47.270;11.368;2023-06-04T10:05:50;5.55;;;3.15;;
68989;SDS011;56046;47.270;11.368;2023-06-04T10:08:16;4.35;;;2.90;;
68989;SDS011;56046;47.270;11.368;2023-06-04T10:10:42;4.40;;;3.00;;
68989;SDS011;56046;47.270;11.368;2023-06-04T10:13:14;4.90;;;3.10;;
68989;SDS011;56046;47.270;11.368;2023-06-04T10:15:41;4.65;;;2.83;;
68989;SDS011;56046;47.270;11.368;2023-06-04T10:18:07;3.83;;;2.75;;
68989;SDS011;56046;47.270;11.368;2023-06-04T10:20:32;4.00;;;2.73;;
68989;SDS011;56046;47.270;11.368;2023-06-04T10:22:58;4.78;;;3.20;;
68989;SDS011;56046;47.270;11.368;2023-06-04T10:25:25;4.47;;;3.28;;
68989;SDS011;56046;47.270;11.368;2023-06-04T10:27:51;3.77;;;3.20;;
68989;SDS011;56046;47.270;11.368;2023-06-04T10:30:17;5.18;;;3.03;;
68989;SDS011;56046;47.270;11.368;2023-06-04T10:32:42;4.57;;;2.90;;
68989;SDS011;56046;47.270;11.368;2023-06-04T10:35:07;4.97;;;3.17;;
68989;SDS011;56046;47.270;11.368;2023-06-04T10:37:33;4.23;;;2.93;;
68989;SDS011;56046;47.270;11.368;2023-06-04T10:39:58;4.00;;;2.90;;
68989;SDS011;56046;47.270;11.368;2023-06-04T10:42:24;4.13;;;3.03;;
68989;SDS011;56046;47.270;11.368;2023-06-04T10:44:54;4.72;;;3.17;;
68989;SDS011;56046;47.270;11.368;2023-06-04T10:47:23;4.38;;;3.13;;
68989;SDS011;56046;47.270;11.368;2023-06-04T10:49:51;4.67;;;2.90;;
68989;SDS011;56046;47.270;11.368;2023-06-04T10:52:17;4.43;;;3.00;;
68989;SDS011;56046;47.270;11.368;2023-06-04T10:54:44;5.18;;;3.38;;
68989;SDS011;56046;47.270;11.368;2023-06-04T10:57:13;4.82;;;3.30;;
68989;SDS011;56046;47.270;11.368;2023-06-04T10:59:39;4.07;;;2.88;;
68989;SDS011;56046;47.270;11.368;2023-06-04T11:02:07;5.43;;;3.53;;
68989;SDS011;56046;47.270;11.368;2023-06-04T11:04:33;4.82;;;3.10;;
68989;SDS011;56046;47.270;11.368;2023-06-04T11:07:05;3.87;;;2.90;;
68989;SDS011;56046;47.270;11.368;2023-06-04T11:09:49;4.30;;;3.13;;
68989;SDS011;56046;47.270;11.368;2023-06-04T11:12:15;4.55;;;3.38;;
68989;SDS011;56046;47.270;11.368;2023-06-04T11:14:40;5.73;;;3.40;;
68989;SDS011;56046;47.270;11.368;2023-06-04T11:17:09;4.57;;;3.17;;
68989;SDS011;56046;47.270;11.368;2023-06-04T11:19:35;4.32;;;2.72;;
68989;SDS011;56046;47.270;11.368;2023-06-04T11:22:01;4.97;;;3.30;;
68989;SDS011;56046;47.270;11.368;2023-06-04T11:24:26;4.67;;;3.07;;
68989;SDS011;56046;47.270;11.368;2023-06-04T11:26:51;4.32;;;2.53;;
68989;SDS011;56046;47.270;11.368;2023-06-04T11:29:17;5.10;;;3.30;;
68989;SDS011;56046;47.270;11.368;2023-06-04T11:34:07;4.30;;;3.20;;
68989;SDS011;56046;47.270;11.368;2023-06-04T11:36:33;3.73;;;2.90;;
68989;SDS011;56046;47.270;11.368;2023-06-04T11:41:30;5.47;;;2.90;;
68989;SDS011;56046;47.270;11.368;2023-06-04T11:43:56;4.37;;;2.83;;
68989;SDS011;56046;47.270;11.368;2023-06-04T11:46:21;5.00;;;3.23;;
68989;SDS011;56046;47.270;11.368;2023-06-04T11:48:47;4.50;;;3.33;;
68989;SDS011;56046;47.270;11.368;2023-06-04T11:51:12;6.07;;;3.37;;
68989;SDS011;56046;47.270;11.368;2023-06-04T11:53:37;4.00;;;3.00;;
68989;SDS011;56046;47.270;11.368;2023-06-04T11:56:03;6.20;;;3.13;;
68989;SDS011;56046;47.270;11.368;2023-06-04T11:58:29;4.57;;;3.13;;
68989;SDS011;56046;47.270;11.368;2023-06-04T12:00:55;5.30;;;3.50;;
68989;SDS011;56046;47.270;11.368;2023-06-04T12:03:31;4.90;;;3.70;;
68989;SDS011;56046;47.270;11.368;2023-06-04T12:05:56;5.47;;;3.35;;
68989;SDS011;56046;47.270;11.368;2023-06-04T12:08:21;5.07;;;3.43;;
68989;SDS011;56046;47.270;11.368;2023-06-04T12:10:46;5.17;;;3.70;;
68989;SDS011;56046;47.270;11.368;2023-06-04T12:13:12;5.60;;;3.87;;
68989;SDS011;56046;47.270;11.368;2023-06-04T12:15:37;5.90;;;3.27;;
68989;SDS011;56046;47.270;11.368;2023-06-04T12:18:02;6.13;;;3.77;;
68989;SDS011;56046;47.270;11.368;2023-06-04T12:20:37;5.00;;;3.43;;
68989;SDS011;56046;47.270;11.368;2023-06-04T12:23:03;6.45;;;4.22;;
68989;SDS011;56046;47.270;11.368;2023-06-04T12:25:29;8.25;;;4.28;;
68989;SDS011;56046;47.270;11.368;2023-06-04T12:27:55;5.40;;;3.58;;
68989;SDS011;56046;47.270;11.368;2023-06-04T12:30:21;6.57;;;3.90;;
68989;SDS011;56046;47.270;11.368;2023-06-04T12:32:47;6.03;;;3.97;;
68989;SDS011;56046;47.270;11.368;2023-06-04T12:35:12;5.40;;;3.75;;
68989;SDS011;56046;47.270;11.368;2023-06-04T12:37:39;6.83;;;4.07;;
68989;SDS011;56046;47.270;11.368;2023-06-04T12:40:05;5.30;;;3.67;;
68989;SDS011;56046;47.270;11.368;2023-06-04T12:42:31;5.57;;;3.30;;
68989;SDS011;56046;47.270;11.368;2023-06-04T12:44:56;7.47;;;3.97;;
68989;SDS011;56046;47.270;11.368;2023-06-04T12:47:21;8.63;;;4.03;;
68989;SDS011;56046;47.270;11.368;2023-06-04T12:49:47;6.33;;;4.30;;
68989;SDS011;56046;47.270;11.368;2023-06-04T12:52:12;6.47;;;4.10;;
68989;SDS011;56046;47.270;11.368;2023-06-04T12:54:39;6.28;;;3.80;;
68989;SDS011;56046;47.270;11.368;2023-06-04T12:57:05;5.33;;;3.77;;
68989;SDS011;56046;47.270;11.368;2023-06-04T12:59:30;5.97;;;3.88;;
68989;SDS011;56046;47.270;11.368;2023-06-04T13:01:55;5.30;;;3.33;;
68989;SDS011;56046;47.270;11.368;2023-06-04T13:04:21;6.30;;;4.00;;
68989;SDS011;56046;47.270;11.368;2023-06-04T13:06:48;5.93;;;4.00;;
68989;SDS011;56046;47.270;11.368;2023-06-04T13:09:14;5.80;;;3.80;;
68989;SDS011;56046;47.270;11.368;2023-06-04T13:11:39;5.73;;;4.17;;
68989;SDS011;56046;47.270;11.368;2023-06-04T13:14:05;5.40;;;3.47;;
68989;SDS011;56046;47.270;11.368;2023-06-04T13:16:30;6.03;;;3.73;;
68989;SDS011;56046;47.270;11.368;2023-06-04T13:18:56;5.97;;;4.20;;
68989;SDS011;56046;47.270;11.368;2023-06-04T13:21:21;6.40;;;3.90;;
68989;SDS011;56046;47.270;11.368;2023-06-04T13:23:46;6.10;;;3.93;;
68989;SDS011;56046;47.270;11.368;2023-06-04T13:26:11;6.73;;;3.90;;
68989;SDS011;56046;47.270;11.368;2023-06-04T13:28:37;5.67;;;3.87;;
68989;SDS011;56046;47.270;11.368;2023-06-04T13:31:02;7.60;;;4.27;;
68989;SDS011;56046;47.270;11.368;2023-06-04T13:33:28;5.53;;;3.75;;
68989;SDS011;56046;47.270;11.368;2023-06-04T13:35:53;7.03;;;4.00;;
68989;SDS011;56046;47.270;11.368;2023-06-04T13:38:18;7.40;;;3.77;;
68989;SDS011;56046;47.270;11.368;2023-06-04T13:40:44;6.17;;;3.77;;
68989;SDS011;56046;47.270;11.368;2023-06-04T13:43:10;6.05;;;3.85;;
68989;SDS011;56046;47.270;11.368;2023-06-04T13:45:35;5.47;;;2.90;;
68989;SDS011;56046;47.270;11.368;2023-06-04T13:48:00;7.63;;;3.83;;
68989;SDS011;56046;47.270;11.368;2023-06-04T13:50:30;6.78;;;3.67;;
68989;SDS011;56046;47.270;11.368;2023-06-04T13:52:55;6.63;;;4.25;;
68989;SDS011;56046;47.270;11.368;2023-06-04T13:55:20;5.90;;;3.73;;
68989;SDS011;56046;47.270;11.368;2023-06-04T13:57:45;6.40;;;3.60;;
68989;SDS011;56046;47.270;11.368;2023-06-04T14:00:11;5.90;;;3.40;;
68989;SDS011;56046;47.270;11.368;2023-06-04T14:02:39;5.32;;;3.03;;
68989;SDS011;56046;47.270;11.368;2023-06-04T14:05:04;6.70;;;3.23;;
68989;SDS011;56046;47.270;11.368;2023-06-04T14:07:29;7.90;;;3.47;;
68989;SDS011;56046;47.270;11.368;2023-06-04T14:09:55;5.63;;;3.03;;
68989;SDS011;56046;47.270;11.368;2023-06-04T14:12:23;7.23;;;3.50;;
68989;SDS011;56046;47.270;11.368;2023-06-04T14:14:49;5.13;;;3.30;;
68989;SDS011;56046;47.270;11.368;2023-06-04T14:17:14;6.03;;;3.22;;
68989;SDS011;56046;47.270;11.368;2023-06-04T14:19:40;7.50;;;3.30;;
68989;SDS011;56046;47.270;11.368;2023-06-04T14:22:05;6.23;;;3.57;;
68989;SDS011;56046;47.270;11.368;2023-06-04T14:24:31;5.13;;;3.30;;
68989;SDS011;56046;47.270;11.368;2023-06-04T14:26:56;4.47;;;2.90;;
68989;SDS011;56046;47.270;11.368;2023-06-04T14:29:21;6.80;;;3.37;;
68989;SDS011;56046;47.270;11.368;2023-06-04T14:31:47;5.43;;;3.07;;
68989;SDS011;56046;47.270;11.368;2023-06-04T14:34:12;5.37;;;3.23;;
68989;SDS011;56046;47.270;11.368;2023-06-04T14:36:37;5.03;;;3.47;;